Time;durP1;ratioP1;P1;durP2;ratioP2;P2;SDS_P1;SDS_P2;PMS_P1;PMS_P2;Temp;Humidity;BMP_temperature;BMP_pressure;BME280_temperature;BME280_humidity;BME280_pressure;Samples;Min_cycle;Max_cycle;Signal;HPM_P1;HPM_P2
2023/01/14 22:05:08;;;;;;;7.68;3.17;;;;;;;18.56;51.27;99925.59;4990312;27;20402;-61
2023/01/14 22:09:25;;;;;;;18.27;8.03;;;;;;;18.57;48.15;99924.66;5000020;27;20416;-78
2023/01/14 22:11:51;;;;;;;19.17;11.05;;;;;;;17.36;48.28;99924.13;4845411;28;20551;-77
2023/01/14 22:14:16;;;;;;;36.50;20.07;;;;;;;16.12;49.23;99936.38;4984942;28;20045;-77
2023/01/14 22:16:42;;;;;;;16.13;9.13;;;;;;;14.99;50.45;99937.91;5021200;28;20087;-78
2023/01/14 22:19:07;;;;;;;13.52;6.38;;;;;;;14.00;51.51;99933.34;5023517;28;20024;-78
2023/01/14 22:21:33;;;;;;;13.23;5.57;;;;;;;13.16;53.18;99935.09;4942695;28;20042;-78
2023/01/14 22:23:58;;;;;;;16.30;6.13;;;;;;;12.45;53.65;99932.88;5012391;28;20026;-79
2023/01/14 22:26:23;;;;;;;17.00;5.90;;;;;;;11.88;54.75;99937.25;5023058;28;20022;-78
2023/01/14 22:28:49;;;;;;;16.63;6.65;;;;;;;11.39;55.31;99944.06;5019576;28;20022;-78
2023/01/14 22:31:17;;;;;;;21.10;8.40;;;;;;;10.96;56.19;99949.84;5022798;28;20621;-78
2023/01/14 22:33:43;;;;;;;18.17;8.50;;;;;;;10.60;56.85;99953.72;5021467;28;20045;-77
2023/01/14 22:36:09;;;;;;;17.47;8.00;;;;;;;10.29;57.71;99955.69;5022606;28;20450;-77
2023/01/14 22:38:35;;;;;;;15.57;5.95;;;;;;;9.98;58.73;99948.88;4970080;28;20038;-78
2023/01/14 22:41:03;;;;;;;14.40;5.93;;;;;;;9.74;58.82;99956.03;5020010;28;20174;-76
2023/01/14 22:43:30;;;;;;;15.90;6.15;;;;;;;9.58;59.45;99959.66;5020343;28;20028;-76
2023/01/14 22:45:56;;;;;;;14.55;6.63;;;;;;;9.43;59.63;99956.22;5021049;28;20030;-77
2023/01/14 22:48:22;;;;;;;16.53;6.47;;;;;;;9.29;59.89;99952.78;5022662;28;20075;-77
2023/01/14 22:50:47;;;;;;;14.60;5.88;;;;;;;9.17;60.63;99959.81;4985396;28;20046;-78
2023/01/14 22:53:14;;;;;;;18.40;6.10;;;;;;;9.07;60.88;99962.47;5012416;28;20022;-78
2023/01/14 22:55:39;;;;;;;14.50;6.18;;;;;;;8.99;61.04;99954.59;5013321;28;20034;-77
2023/01/14 22:58:05;;;;;;;18.20;5.60;;;;;;;8.90;61.56;99953.75;5012269;28;20030;-78
2023/01/14 23:00:31;;;;;;;15.50;5.82;;;;;;;8.85;61.44;99952.91;5011763;28;20037;-78
2023/01/14 23:02:59;;;;;;;14.00;6.03;;;;;;;8.78;61.60;99961.66;5010521;28;20394;-77
2023/01/14 23:05:25;;;;;;;19.45;8.07;;;;;;;8.74;61.76;99949.41;5010941;28;20030;-78
2023/01/14 23:07:51;;;;;;;19.33;7.87;;;;;;;8.69;61.63;99945.91;5012923;28;20046;-77
2023/01/14 23:10:17;;;;;;;19.70;6.82;;;;;;;8.64;61.80;99947.69;5012814;28;20022;-78
2023/01/14 23:12:43;;;;;;;17.58;6.18;;;;;;;8.59;62.59;99956.44;5013077;28;20034;-78
2023/01/14 23:15:09;;;;;;;15.37;5.93;;;;;;;8.54;62.98;99947.69;5022717;28;20088;-78
2023/01/14 23:17:35;;;;;;;14.73;6.00;;;;;;;8.51;63.26;99942.44;5011652;28;20022;-78
2023/01/14 23:23:51;;;;;;;16.40;6.97;;;;;;;8.48;62.92;99938.06;5004032;28;20031;-78
2023/01/14 23:25:36;;;;;;;17.98;7.07;;;;;;;8.43;62.99;99929.28;4999771;28;20045;-78
2023/01/14 23:28:03;;;;;;;30.75;12.85;;;;;;;8.40;63.04;99924.03;5000014;28;20475;-78
2023/01/14 23:30:29;;;;;;;27.60;12.05;;;;;;;8.36;63.18;99924.91;5000055;28;20114;-78
2023/01/14 23:32:54;;;;;;;25.47;7.70;;;;;;;8.33;63.35;99917.94;4999804;28;20031;-78
2023/01/14 23:35:20;;;;;;;18.60;7.00;;;;;;;8.31;63.13;99917.03;4999622;28;20483;-78
2023/01/14 23:37:45;;;;;;;24.80;7.87;;;;;;;8.31;64.02;99924.91;4998544;28;20038;-78
2023/01/14 23:40:11;;;;;;;24.25;7.35;;;;;;;8.29;63.88;99913.56;4999422;28;20038;-78
2023/01/14 23:42:36;;;;;;;19.43;6.97;;;;;;;8.29;64.28;99916.16;4998755;28;20065;-78
2023/01/14 23:45:02;;;;;;;18.25;5.80;;;;;;;8.28;64.05;99903.94;4998289;28;20479;-78
2023/01/14 23:47:28;;;;;;;15.33;5.70;;;;;;;8.28;64.21;99898.69;4998483;28;20042;-78
2023/01/14 23:49:53;;;;;;;14.88;5.68;;;;;;;8.28;63.67;99913.56;4998391;28;20037;-78
2023/01/14 23:52:20;;;;;;;19.07;6.83;;;;;;;8.26;64.15;99912.69;4999624;28;20034;-78
2023/01/14 23:54:45;;;;;;;20.48;7.78;;;;;;;8.24;64.54;99904.81;4999340;28;20074;-78
2023/01/14 23:57:12;;;;;;;22.07;7.50;;;;;;;8.22;64.71;99917.06;4999401;28;20116;-78
2023/01/14 23:59:38;;;;;;;18.25;7.07;;;;;;;8.22;64.77;99922.31;4997867;28;20053;-78
